sensor_id;sensor_type;location;lat;lon;timestamp;P1;durP1;ratioP1;P2;durP2;ratioP2
6862;SDS011;3470;48.738;9.616;2023-10-13T12:23:00;5.82;;;2.88;;
6862;SDS011;3470;48.738;9.616;2023-10-13T12:25:40;7.25;;;3.08;;
6862;SDS011;3470;48.738;9.616;2023-10-13T12:28:24;7.85;;;3.30;;
6862;SDS011;3470;48.738;9.616;2023-10-13T12:30:52;7.45;;;3.00;;
6862;SDS011;3470;48.738;9.616;2023-10-13T12:33:19;7.55;;;3.08;;
6862;SDS011;3470;48.738;9.616;2023-10-13T12:35:58;18.13;;;3.72;;
6862;SDS011;3470;48.738;9.616;2023-10-13T12:38:34;7.32;;;3.00;;
6862;SDS011;3470;48.738;9.616;2023-10-13T12:41:13;7.22;;;2.72;;
6862;SDS011;3470;48.738;9.616;2023-10-13T12:44:00;6.97;;;3.30;;
6862;SDS011;3470;48.738;9.616;2023-10-13T12:46:45;6.43;;;3.35;;
6862;SDS011;3470;48.738;9.616;2023-10-13T12:49:29;6.90;;;3.08;;
6862;SDS011;3470;48.738;9.616;2023-10-13T12:52:12;5.28;;;3.10;;
6862;SDS011;3470;48.738;9.616;2023-10-13T12:54:44;9.77;;;3.17;;
6862;SDS011;3470;48.738;9.616;2023-10-13T12:57:23;5.85;;;3.45;;
6862;SDS011;3470;48.738;9.616;2023-10-13T12:59:53;4.57;;;2.78;;
6862;SDS011;3470;48.738;9.616;2023-10-13T13:02:23;4.88;;;2.95;;
6862;SDS011;3470;48.738;9.616;2023-10-13T13:04:53;8.38;;;3.10;;
6862;SDS011;3470;48.738;9.616;2023-10-13T13:07:26;4.97;;;2.88;;
6862;SDS011;3470;48.738;9.616;2023-10-13T13:09:54;6.40;;;2.88;;
6862;SDS011;3470;48.738;9.616;2023-10-13T13:12:23;5.40;;;2.80;;
6862;SDS011;3470;48.738;9.616;2023-10-13T13:14:49;5.82;;;3.03;;
6862;SDS011;3470;48.738;9.616;2023-10-13T13:17:19;8.73;;;3.20;;
6862;SDS011;3470;48.738;9.616;2023-10-13T13:19:48;6.47;;;2.88;;
6862;SDS011;3470;48.738;9.616;2023-10-13T13:22:13;4.53;;;2.97;;
6862;SDS011;3470;48.738;9.616;2023-10-13T13:24:39;8.13;;;2.80;;
6862;SDS011;3470;48.738;9.616;2023-10-13T13:27:08;5.38;;;3.20;;
6862;SDS011;3470;48.738;9.616;2023-10-13T13:29:38;5.03;;;2.70;;
6862;SDS011;3470;48.738;9.616;2023-10-13T13:32:05;4.75;;;3.28;;
6862;SDS011;3470;48.738;9.616;2023-10-13T13:34:32;5.70;;;3.78;;
6862;SDS011;3470;48.738;9.616;2023-10-13T13:36:58;5.80;;;3.30;;
6862;SDS011;3470;48.738;9.616;2023-10-13T13:39:27;5.25;;;3.10;;
6862;SDS011;3470;48.738;9.616;2023-10-13T13:41:54;5.05;;;3.00;;
6862;SDS011;3470;48.738;9.616;2023-10-13T13:44:26;6.68;;;2.90;;
6862;SDS011;3470;48.738;9.616;2023-10-13T13:46:55;5.28;;;2.72;;
6862;SDS011;3470;48.738;9.616;2023-10-13T13:49:21;5.28;;;2.80;;
6862;SDS011;3470;48.738;9.616;2023-10-13T13:51:54;6.95;;;2.95;;
6862;SDS011;3470;48.738;9.616;2023-10-13T13:54:21;6.45;;;2.97;;
6862;SDS011;3470;48.738;9.616;2023-10-13T13:56:47;7.72;;;3.28;;
6862;SDS011;3470;48.738;9.616;2023-10-13T13:59:13;6.05;;;3.50;;
6862;SDS011;3470;48.738;9.616;2023-10-13T14:01:44;7.15;;;3.88;;
6862;SDS011;3470;48.738;9.616;2023-10-13T14:04:10;6.95;;;3.20;;
6862;SDS011;3470;48.738;9.616;2023-10-13T14:06:36;8.00;;;3.63;;
6862;SDS011;3470;48.738;9.616;2023-10-13T14:09:03;8.40;;;3.13;;
6862;SDS011;3470;48.738;9.616;2023-10-13T14:11:39;5.55;;;3.13;;
6862;SDS011;3470;48.738;9.616;2023-10-13T14:14:14;5.22;;;3.03;;
6862;SDS011;3470;48.738;9.616;2023-10-13T14:16:54;4.82;;;3.20;;
6862;SDS011;3470;48.738;9.616;2023-10-13T14:19:28;5.88;;;3.30;;
6862;SDS011;3470;48.738;9.616;2023-10-13T14:21:57;6.65;;;2.90;;
6862;SDS011;3470;48.738;9.616;2023-10-13T14:24:24;7.28;;;3.08;;
6862;SDS011;3470;48.738;9.616;2023-10-13T14:26:56;7.45;;;3.75;;
6862;SDS011;3470;48.738;9.616;2023-10-13T14:29:32;9.10;;;3.20;;
6862;SDS011;3470;48.738;9.616;2023-10-13T14:31:58;5.68;;;3.33;;
6862;SDS011;3470;48.738;9.616;2023-10-13T14:34:27;4.88;;;3.45;;
6862;SDS011;3470;48.738;9.616;2023-10-13T14:36:52;11.30;;;3.60;;
6862;SDS011;3470;48.738;9.616;2023-10-13T14:39:19;6.18;;;3.33;;
6862;SDS011;3470;48.738;9.616;2023-10-13T14:41:46;4.20;;;2.72;;
6862;SDS011;3470;48.738;9.616;2023-10-13T14:44:13;5.75;;;2.85;;
6862;SDS011;3470;48.738;9.616;2023-10-13T14:46:39;5.93;;;3.10;;
6862;SDS011;3470;48.738;9.616;2023-10-13T14:49:05;5.13;;;3.33;;
6862;SDS011;3470;48.738;9.616;2023-10-13T14:51:31;6.65;;;3.33;;
6862;SDS011;3470;48.738;9.616;2023-10-13T14:53:57;5.60;;;3.25;;
6862;SDS011;3470;48.738;9.616;2023-10-13T14:56:25;6.63;;;3.40;;
6862;SDS011;3470;48.738;9.616;2023-10-13T14:58:51;5.88;;;3.35;;
6862;SDS011;3470;48.738;9.616;2023-10-13T15:01:18;6.40;;;3.15;;
6862;SDS011;3470;48.738;9.616;2023-10-13T15:03:46;6.60;;;3.42;;
6862;SDS011;3470;48.738;9.616;2023-10-13T15:08:49;6.25;;;3.28;;
6862;SDS011;3470;48.738;9.616;2023-10-13T15:11:15;7.38;;;2.80;;
6862;SDS011;3470;48.738;9.616;2023-10-13T15:13:43;9.00;;;3.40;;
6862;SDS011;3470;48.738;9.616;2023-10-13T15:16:22;6.07;;;3.05;;
6862;SDS011;3470;48.738;9.616;2023-10-13T15:18:50;4.13;;;2.65;;
6862;SDS011;3470;48.738;9.616;2023-10-13T15:23:51;7.88;;;3.20;;
6862;SDS011;3470;48.738;9.616;2023-10-13T15:26:18;6.45;;;2.90;;
6862;SDS011;3470;48.738;9.616;2023-10-13T15:28:46;7.10;;;2.97;;
6862;SDS011;3470;48.738;9.616;2023-10-13T15:31:22;4.28;;;2.80;;
6862;SDS011;3470;48.738;9.616;2023-10-13T15:33:49;7.45;;;3.35;;
6862;SDS011;3470;48.738;9.616;2023-10-13T15:36:22;6.30;;;3.00;;
6862;SDS011;3470;48.738;9.616;2023-10-13T15:38:49;5.05;;;2.85;;
6862;SDS011;3470;48.738;9.616;2023-10-13T15:41:23;4.32;;;2.80;;
6862;SDS011;3470;48.738;9.616;2023-10-13T15:43:53;6.90;;;3.47;;
6862;SDS011;3470;48.738;9.616;2023-10-13T15:46:21;3.78;;;2.83;;
6862;SDS011;3470;48.738;9.616;2023-10-13T15:48:48;5.05;;;2.80;;
6862;SDS011;3470;48.738;9.616;2023-10-13T15:51:14;7.88;;;2.88;;
6862;SDS011;3470;48.738;9.616;2023-10-13T15:53:41;5.53;;;2.95;;
6862;SDS011;3470;48.738;9.616;2023-10-13T15:56:08;4.80;;;2.90;;
6862;SDS011;3470;48.738;9.616;2023-10-13T15:58:40;5.47;;;2.65;;
6862;SDS011;3470;48.738;9.616;2023-10-13T16:01:08;5.45;;;2.53;;
6862;SDS011;3470;48.738;9.616;2023-10-13T16:03:37;4.63;;;2.63;;
6862;SDS011;3470;48.738;9.616;2023-10-13T16:06:14;5.57;;;2.65;;
6862;SDS011;3470;48.738;9.616;2023-10-13T16:08:40;4.40;;;2.53;;
6862;SDS011;3470;48.738;9.616;2023-10-13T16:11:10;6.65;;;2.70;;
6862;SDS011;3470;48.738;9.616;2023-10-13T16:13:42;4.03;;;2.35;;
6862;SDS011;3470;48.738;9.616;2023-10-13T16:16:15;3.70;;;2.38;;
6862;SDS011;3470;48.738;9.616;2023-10-13T16:18:47;4.45;;;2.50;;
6862;SDS011;3470;48.738;9.616;2023-10-13T16:21:14;5.05;;;2.38;;
6862;SDS011;3470;48.738;9.616;2023-10-13T16:23:46;4.70;;;2.30;;
6862;SDS011;3470;48.738;9.616;2023-10-13T16:26:16;5.70;;;2.75;;
6862;SDS011;3470;48.738;9.616;2023-10-13T16:28:47;4.60;;;2.85;;
6862;SDS011;3470;48.738;9.616;2023-10-13T16:31:12;4.90;;;2.40;;
6862;SDS011;3470;48.738;9.616;2023-10-13T16:33:38;6.63;;;2.55;;
6862;SDS011;3470;48.738;9.616;2023-10-13T16:36:05;4.50;;;2.40;;
6862;SDS011;3470;48.738;9.616;2023-10-13T16:38:34;5.72;;;2.58;;
6862;SDS011;3470;48.738;9.616;2023-10-13T16:41:03;4.57;;;2.58;;
6862;SDS011;3470;48.738;9.616;2023-10-13T16:43:40;6.18;;;2.63;;
6862;SDS011;3470;48.738;9.616;2023-10-13T16:46:10;6.93;;;2.97;;
6862;SDS011;3470;48.738;9.616;2023-10-13T16:48:40;4.78;;;2.65;;
6862;SDS011;3470;48.738;9.616;2023-10-13T16:51:06;9.45;;;2.90;;
6862;SDS011;3470;48.738;9.616;2023-10-13T16:53:46;6.10;;;3.05;;
6862;SDS011;3470;48.738;9.616;2023-10-13T16:56:14;6.90;;;2.80;;
6862;SDS011;3470;48.738;9.616;2023-10-13T16:58:41;6.20;;;3.33;;
6862;SDS011;3470;48.738;9.616;2023-10-13T17:01:13;7.15;;;3.15;;
6862;SDS011;3470;48.738;9.616;2023-10-13T17:03:40;5.15;;;3.20;;
6862;SDS011;3470;48.738;9.616;2023-10-13T17:06:10;7.03;;;3.08;;
6862;SDS011;3470;48.738;9.616;2023-10-13T17:08:36;7.13;;;2.90;;
6862;SDS011;3470;48.738;9.616;2023-10-13T17:13:45;7.93;;;2.72;;
6862;SDS011;3470;48.738;9.616;2023-10-13T17:16:13;5.25;;;3.10;;
6862;SDS011;3470;48.738;9.616;2023-10-13T17:18:42;6.85;;;3.40;;
6862;SDS011;3470;48.738;9.616;2023-10-13T17:21:21;9.02;;;3.58;;
6862;SDS011;3470;48.738;9.616;2023-10-13T17:23:49;6.75;;;3.42;;
6862;SDS011;3470;48.738;9.616;2023-10-13T17:26:17;8.13;;;3.70;;
6862;SDS011;3470;48.738;9.616;2023-10-13T17:28:47;5.90;;;3.05;;
6862;SDS011;3470;48.738;9.616;2023-10-13T17:31:13;8.05;;;3.17;;
6862;SDS011;3470;48.738;9.616;2023-10-13T17:33:39;8.98;;;3.38;;
6862;SDS011;3470;48.738;9.616;2023-10-13T17:36:09;8.23;;;4.07;;
6862;SDS011;3470;48.738;9.616;2023-10-13T17:38:35;10.48;;;3.53;;
6862;SDS011;3470;48.738;9.616;2023-10-13T17:41:02;5.70;;;2.78;;
6862;SDS011;3470;48.738;9.616;2023-10-13T17:43:31;8.05;;;3.50;;
6862;SDS011;3470;48.738;9.616;2023-10-13T17:46:03;5.32;;;3.20;;
6862;SDS011;3470;48.738;9.616;2023-10-13T17:48:30;8.07;;;3.67;;
6862;SDS011;3470;48.738;9.616;2023-10-13T17:50:56;9.40;;;3.55;;
6862;SDS011;3470;48.738;9.616;2023-10-13T17:53:22;5.45;;;3.20;;
6862;SDS011;3470;48.738;9.616;2023-10-13T17:55:47;7.60;;;3.30;;
6862;SDS011;3470;48.738;9.616;2023-10-13T17:58:15;6.43;;;3.33;;
6862;SDS011;3470;48.738;9.616;2023-10-13T18:00:40;8.20;;;3.80;;
6862;SDS011;3470;48.738;9.616;2023-10-13T18:03:10;6.03;;;3.78;;
6862;SDS011;3470;48.738;9.616;2023-10-13T18:05:36;9.73;;;3.55;;
6862;SDS011;3470;48.738;9.616;2023-10-13T18:08:04;6.10;;;3.45;;
6862;SDS011;3470;48.738;9.616;2023-10-13T18:10:31;5.45;;;3.38;;
6862;SDS011;3470;48.738;9.616;2023-10-13T18:12:57;8.50;;;2.90;;
6862;SDS011;3470;48.738;9.616;2023-10-13T18:15:22;8.27;;;4.20;;
6862;SDS011;3470;48.738;9.616;2023-10-13T18:17:49;8.20;;;3.80;;
6862;SDS011;3470;48.738;9.616;2023-10-13T18:20:18;5.32;;;3.58;;
6862;SDS011;3470;48.738;9.616;2023-10-13T18:22:47;7.07;;;3.20;;
6862;SDS011;3470;48.738;9.616;2023-10-13T18:25:12;7.15;;;3.40;;
6862;SDS011;3470;48.738;9.616;2023-10-13T18:27:41;8.23;;;3.50;;
6862;SDS011;3470;48.738;9.616;2023-10-13T18:30:08;7.22;;;3.47;;
6862;SDS011;3470;48.738;9.616;2023-10-13T18:32:38;7.03;;;3.50;;
6862;SDS011;3470;48.738;9.616;2023-10-13T18:35:08;7.78;;;3.58;;
6862;SDS011;3470;48.738;9.616;2023-10-13T18:37:39;9.13;;;3.42;;
6862;SDS011;3470;48.738;9.616;2023-10-13T18:40:06;6.15;;;3.40;;
6862;SDS011;3470;48.738;9.616;2023-10-13T18:42:38;10.77;;;2.78;;
6862;SDS011;3470;48.738;9.616;2023-10-13T18:45:16;6.82;;;3.20;;
6862;SDS011;3470;48.738;9.616;2023-10-13T18:47:45;6.70;;;3.40;;
6862;SDS011;3470;48.738;9.616;2023-10-13T18:50:11;5.70;;;3.33;;
6862;SDS011;3470;48.738;9.616;2023-10-13T18:52:40;6.00;;;2.97;;
6862;SDS011;3470;48.738;9.616;2023-10-13T18:55:06;6.78;;;3.10;;
6862;SDS011;3470;48.738;9.616;2023-10-13T18:57:32;8.60;;;3.05;;
6862;SDS011;3470;48.738;9.616;2023-10-13T18:59:58;5.90;;;3.28;;
6862;SDS011;3470;48.738;9.616;2023-10-13T19:02:23;4.72;;;3.00;;
6862;SDS011;3470;48.738;9.616;2023-10-13T19:04:50;4.82;;;2.95;;
6862;SDS011;3470;48.738;9.616;2023-10-13T19:07:15;8.05;;;3.05;;
6862;SDS011;3470;48.738;9.616;2023-10-13T19:09:41;5.97;;;2.85;;
6862;SDS011;3470;48.738;9.616;2023-10-13T19:12:09;6.65;;;3.17;;
6862;SDS011;3470;48.738;9.616;2023-10-13T19:14:34;4.00;;;3.00;;
6862;SDS011;3470;48.738;9.616;2023-10-13T19:17:00;5.43;;;3.60;;
6862;SDS011;3470;48.738;9.616;2023-10-13T19:19:26;6.18;;;3.00;;
6862;SDS011;3470;48.738;9.616;2023-10-13T19:21:56;8.98;;;2.70;;
6862;SDS011;3470;48.738;9.616;2023-10-13T19:24:22;6.93;;;3.40;;
6862;SDS011;3470;48.738;9.616;2023-10-13T19:26:48;6.93;;;3.08;;
6862;SDS011;3470;48.738;9.616;2023-10-13T19:29:13;7.82;;;2.95;;
6862;SDS011;3470;48.738;9.616;2023-10-13T19:31:43;5.60;;;3.33;;
6862;SDS011;3470;48.738;9.616;2023-10-13T19:34:10;5.07;;;2.92;;
6862;SDS011;3470;48.738;9.616;2023-10-13T19:36:36;3.95;;;2.72;;
6862;SDS011;3470;48.738;9.616;2023-10-13T19:39:02;5.53;;;2.65;;
6862;SDS011;3470;48.738;9.616;2023-10-13T19:41:29;4.90;;;2.95;;
6862;SDS011;3470;48.738;9.616;2023-10-13T19:43:59;6.18;;;2.90;;
6862;SDS011;3470;48.738;9.616;2023-10-13T19:46:27;7.65;;;3.22;;
6862;SDS011;3470;48.738;9.616;2023-10-13T19:48:54;5.25;;;3.20;;
6862;SDS011;3470;48.738;9.616;2023-10-13T19:51:21;7.25;;;2.88;;
6862;SDS011;3470;48.738;9.616;2023-10-13T19:53:55;5.55;;;3.03;;
6862;SDS011;3470;48.738;9.616;2023-10-13T19:56:31;7.38;;;3.60;;
6862;SDS011;3470;48.738;9.616;2023-10-13T19:58:57;3.70;;;2.72;;
6862;SDS011;3470;48.738;9.616;2023-10-13T20:01:25;8.07;;;2.65;;
6862;SDS011;3470;48.738;9.616;2023-10-13T20:03:52;5.47;;;2.63;;
6862;SDS011;3470;48.738;9.616;2023-10-13T20:06:22;6.07;;;3.03;;
6862;SDS011;3470;48.738;9.616;2023-10-13T20:08:49;7.30;;;3.00;;
6862;SDS011;3470;48.738;9.616;2023-10-13T20:11:15;3.97;;;2.85;;
6862;SDS011;3470;48.738;9.616;2023-10-13T20:13:42;4.88;;;2.90;;
6862;SDS011;3470;48.738;9.616;2023-10-13T20:16:11;5.50;;;2.72;;
6862;SDS011;3470;48.738;9.616;2023-10-13T20:18:52;6.90;;;2.75;;
6862;SDS011;3470;48.738;9.616;2023-10-13T20:21:25;4.93;;;2.63;;
6862;SDS011;3470;48.738;9.616;2023-10-13T20:23:52;7.00;;;3.05;;
6862;SDS011;3470;48.738;9.616;2023-10-13T20:26:19;6.30;;;2.70;;
6862;SDS011;3470;48.738;9.616;2023-10-13T20:28:48;5.13;;;2.60;;
6862;SDS011;3470;48.738;9.616;2023-10-13T20:31:13;4.90;;;2.85;;
6862;SDS011;3470;48.738;9.616;2023-10-13T20:33:40;4.78;;;2.63;;
6862;SDS011;3470;48.738;9.616;2023-10-13T20:36:08;6.88;;;2.83;;
6862;SDS011;3470;48.738;9.616;2023-10-13T20:38:34;5.72;;;2.75;;
6862;SDS011;3470;48.738;9.616;2023-10-13T20:41:00;5.90;;;2.78;;
6862;SDS011;3470;48.738;9.616;2023-10-13T20:43:28;5.63;;;2.67;;
6862;SDS011;3470;48.738;9.616;2023-10-13T20:45:55;7.90;;;2.60;;
6862;SDS011;3470;48.738;9.616;2023-10-13T20:48:26;3.72;;;2.00;;
6862;SDS011;3470;48.738;9.616;2023-10-13T20:50:58;4.82;;;2.63;;
6862;SDS011;3470;48.738;9.616;2023-10-13T20:53:30;4.28;;;2.80;;
6862;SDS011;3470;48.738;9.616;2023-10-13T20:55:57;4.07;;;3.08;;
6862;SDS011;3470;48.738;9.616;2023-10-13T20:58:30;7.35;;;2.65;;
6862;SDS011;3470;48.738;9.616;2023-10-13T21:00:57;5.63;;;2.83;;
6862;SDS011;3470;48.738;9.616;2023-10-13T21:03:34;5.45;;;2.42;;
6862;SDS011;3470;48.738;9.616;2023-10-13T21:06:03;6.00;;;2.60;;
6862;SDS011;3470;48.738;9.616;2023-10-13T21:08:32;5.25;;;2.47;;
6862;SDS011;3470;48.738;9.616;2023-10-13T21:11:07;6.75;;;2.85;;
6862;SDS011;3470;48.738;9.616;2023-10-13T21:13:33;5.40;;;2.58;;
6862;SDS011;3470;48.738;9.616;2023-10-13T21:15:59;4.20;;;2.28;;
6862;SDS011;3470;48.738;9.616;2023-10-13T21:18:25;4.18;;;2.55;;
6862;SDS011;3470;48.738;9.616;2023-10-13T21:20:53;3.17;;;2.28;;
6862;SDS011;3470;48.738;9.616;2023-10-13T21:23:32;5.50;;;2.58;;
6862;SDS011;3470;48.738;9.616;2023-10-13T21:25:58;4.63;;;2.50;;
6862;SDS011;3470;48.738;9.616;2023-10-13T21:28:24;3.38;;;2.47;;
6862;SDS011;3470;48.738;9.616;2023-10-13T21:30:51;5.70;;;2.30;;
6862;SDS011;3470;48.738;9.616;2023-10-13T21:33:17;3.90;;;2.63;;
6862;SDS011;3470;48.738;9.616;2023-10-13T21:35:43;5.88;;;2.47;;
6862;SDS011;3470;48.738;9.616;2023-10-13T21:38:08;7.35;;;2.55;;
6862;SDS011;3470;48.738;9.616;2023-10-13T21:40:39;4.00;;;2.20;;
6862;SDS011;3470;48.738;9.616;2023-10-13T21:43:05;5.90;;;2.85;;
6862;SDS011;3470;48.738;9.616;2023-10-13T21:45:31;4.63;;;2.35;;
6862;SDS011;3470;48.738;9.616;2023-10-13T21:47:57;6.03;;;2.58;;
6862;SDS011;3470;48.738;9.616;2023-10-13T21:50:23;4.00;;;2.53;;
6862;SDS011;3470;48.738;9.616;2023-10-13T21:52:50;4.93;;;2.53;;
6862;SDS011;3470;48.738;9.616;2023-10-13T21:55:16;4.18;;;2.30;;
6862;SDS011;3470;48.738;9.616;2023-10-13T22:00:09;6.22;;;2.78;;
6862;SDS011;3470;48.738;9.616;2023-10-13T22:02:45;4.43;;;2.05;;
6862;SDS011;3470;48.738;9.616;2023-10-13T22:05:12;3.50;;;2.38;;
6862;SDS011;3470;48.738;9.616;2023-10-13T22:07:38;6.88;;;2.65;;
6862;SDS011;3470;48.738;9.616;2023-10-13T22:10:03;4.30;;;2.55;;
6862;SDS011;3470;48.738;9.616;2023-10-13T22:12:31;4.10;;;2.53;;
6862;SDS011;3470;48.738;9.616;2023-10-13T22:14:57;6.40;;;2.97;;
6862;SDS011;3470;48.738;9.616;2023-10-13T22:17:27;4.82;;;2.42;;
6862;SDS011;3470;48.738;9.616;2023-10-13T22:19:54;4.78;;;2.63;;
6862;SDS011;3470;48.738;9.616;2023-10-13T22:22:19;6.82;;;2.67;;
6862;SDS011;3470;48.738;9.616;2023-10-13T22:24:45;4.75;;;3.00;;
6862;SDS011;3470;48.738;9.616;2023-10-13T22:27:10;5.40;;;2.63;;
6862;SDS011;3470;48.738;9.616;2023-10-13T22:29:38;2.83;;;2.30;;
6862;SDS011;3470;48.738;9.616;2023-10-13T22:32:07;6.50;;;2.83;;
6862;SDS011;3470;48.738;9.616;2023-10-13T22:34:34;4.65;;;2.63;;
6862;SDS011;3470;48.738;9.616;2023-10-13T22:36:59;3.17;;;2.85;;
6862;SDS011;3470;48.738;9.616;2023-10-13T22:39:25;4.18;;;2.40;;
6862;SDS011;3470;48.738;9.616;2023-10-13T22:41:52;3.25;;;2.40;;
6862;SDS011;3470;48.738;9.616;2023-10-13T22:44:17;6.30;;;2.78;;
6862;SDS011;3470;48.738;9.616;2023-10-13T22:46:44;5.25;;;2.40;;
6862;SDS011;3470;48.738;9.616;2023-10-13T22:49:10;5.00;;;2.47;;
6862;SDS011;3470;48.738;9.616;2023-10-13T22:51:40;3.95;;;2.63;;
6862;SDS011;3470;48.738;9.616;2023-10-13T22:54:07;3.72;;;2.80;;
6862;SDS011;3470;48.738;9.616;2023-10-13T22:56:35;4.57;;;2.97;;
6862;SDS011;3470;48.738;9.616;2023-10-13T22:59:05;3.72;;;2.55;;
6862;SDS011;3470;48.738;9.616;2023-10-13T23:01:33;5.40;;;3.25;;
6862;SDS011;3470;48.738;9.616;2023-10-13T23:04:07;4.20;;;2.90;;
6862;SDS011;3470;48.738;9.616;2023-10-13T23:06:42;4.75;;;3.03;;
6862;SDS011;3470;48.738;9.616;2023-10-13T23:09:17;6.35;;;2.60;;
6862;SDS011;3470;48.738;9.616;2023-10-13T23:11:52;4.45;;;2.63;;
6862;SDS011;3470;48.738;9.616;2023-10-13T23:14:28;4.28;;;2.78;;
6862;SDS011;3470;48.738;9.616;2023-10-13T23:16:57;3.90;;;2.50;;
6862;SDS011;3470;48.738;9.616;2023-10-13T23:19:25;4.75;;;2.83;;
6862;SDS011;3470;48.738;9.616;2023-10-13T23:21:51;2.78;;;2.38;;
6862;SDS011;3470;48.738;9.616;2023-10-13T23:24:17;6.70;;;3.22;;
6862;SDS011;3470;48.738;9.616;2023-10-13T23:26:43;3.85;;;2.60;;
6862;SDS011;3470;48.738;9.616;2023-10-13T23:29:09;9.27;;;2.95;;
6862;SDS011;3470;48.738;9.616;2023-10-13T23:31:37;4.47;;;2.50;;
6862;SDS011;3470;48.738;9.616;2023-10-13T23:34:03;3.30;;;2.72;;
6862;SDS011;3470;48.738;9.616;2023-10-13T23:36:28;3.70;;;2.92;;
6862;SDS011;3470;48.738;9.616;2023-10-13T23:38:54;3.88;;;2.90;;
6862;SDS011;3470;48.738;9.616;2023-10-13T23:41:20;3.65;;;2.90;;
6862;SDS011;3470;48.738;9.616;2023-10-13T23:43:48;4.63;;;2.70;;
6862;SDS011;3470;48.738;9.616;2023-10-13T23:46:20;4.93;;;2.50;;
6862;SDS011;3470;48.738;9.616;2023-10-13T23:48:49;3.90;;;3.00;;
6862;SDS011;3470;48.738;9.616;2023-10-13T23:51:18;4.55;;;3.10;;
6862;SDS011;3470;48.738;9.616;2023-10-13T23:53:51;7.60;;;2.92;;
6862;SDS011;3470;48.738;9.616;2023-10-13T23:56:17;5.38;;;3.15;;
